Terminal Aerodrome Forecast
Issued by NWS

Home | Current Version | Previous Version | Text Only | Print | Product List | Glossary On
Versions: 1 2 3 4 5 6 7 8 9 10 11 12 13 14 15 16 17 18 19 20
000
FTPA31 PHFO 301100
TAFLNY
TAF
PHNY 301120Z 3012/3112 04015KT P6SM FEW022 SCT040
     FM302100 04015G25KT P6SM FEW025 SCT040
     FM310500 04012KT P6SM FEW022 SCT040
      AMD NOT SKED=

USA.gov is the U.S. government's official web portal to all federal, state and local government web resources and services.